sensor_id;sensor_type;location;lat;lon;timestamp;pressure;altitude;pressure_sealevel;temperature;humidity
67052;BME280;53957;47.222;18.670;2023-05-21T06:05:46;100266.75;;;20.21;100.00
67052;BME280;53957;47.222;18.670;2023-05-21T06:08:50;100267.37;;;20.31;99.38
67052;BME280;53957;47.222;18.670;2023-05-21T06:11:53;100268.75;;;20.24;96.78
67052;BME280;53957;47.222;18.670;2023-05-21T06:14:57;100268.19;;;20.79;92.38
67052;BME280;53957;47.222;18.670;2023-05-21T06:17:59;100271.34;;;21.33;94.43
67052;BME280;53957;47.222;18.670;2023-05-21T06:21:03;100271.91;;;21.58;86.09
67052;BME280;53957;47.222;18.670;2023-05-21T06:24:06;100266.91;;;21.60;87.70
67052;BME280;53957;47.222;18.670;2023-05-21T06:27:09;100273.94;;;21.45;87.92
67052;BME280;53957;47.222;18.670;2023-05-21T06:30:13;100257.19;;;21.23;89.05
67052;BME280;53957;47.222;18.670;2023-05-21T06:33:16;100264.78;;;20.98;86.74
67052;BME280;53957;47.222;18.670;2023-05-21T06:36:19;100260.06;;;21.86;87.12
67052;BME280;53957;47.222;18.670;2023-05-21T06:39:23;100262.22;;;22.39;82.98
67052;BME280;53957;47.222;18.670;2023-05-21T06:42:26;100262.59;;;22.38;80.59
67052;BME280;53957;47.222;18.670;2023-05-21T06:45:30;100255.75;;;22.47;82.81
67052;BME280;53957;47.222;18.670;2023-05-21T06:48:33;100257.94;;;22.18;80.19
67052;BME280;53957;47.222;18.670;2023-05-21T06:51:36;100255.62;;;22.87;77.24
67052;BME280;53957;47.222;18.670;2023-05-21T06:54:39;100260.13;;;22.79;78.28
67052;BME280;53957;47.222;18.670;2023-05-21T06:57:42;100253.66;;;22.87;76.58
67052;BME280;53957;47.222;18.670;2023-05-21T07:00:46;100253.84;;;22.98;77.61
67052;BME280;53957;47.222;18.670;2023-05-21T07:03:49;100250.66;;;23.50;71.31
67052;BME280;53957;47.222;18.670;2023-05-21T07:06:52;100256.84;;;24.15;70.28
67052;BME280;53957;47.222;18.670;2023-05-21T07:09:57;100256.78;;;24.07;70.72
67052;BME280;53957;47.222;18.670;2023-05-21T07:13:00;100255.62;;;24.08;67.74
67052;BME280;53957;47.222;18.670;2023-05-21T07:16:04;100256.41;;;23.75;74.59
67052;BME280;53957;47.222;18.670;2023-05-21T07:19:07;100252.81;;;23.37;80.00
67052;BME280;53957;47.222;18.670;2023-05-21T07:22:12;100247.72;;;23.62;72.92
67052;BME280;53957;47.222;18.670;2023-05-21T07:25:14;100248.22;;;24.05;65.66
67052;BME280;53957;47.222;18.670;2023-05-21T07:28:18;100244.75;;;24.12;70.42
67052;BME280;53957;47.222;18.670;2023-05-21T07:31:22;100240.34;;;24.00;67.68
67052;BME280;53957;47.222;18.670;2023-05-21T07:34:25;100235.59;;;24.80;64.97
67052;BME280;53957;47.222;18.670;2023-05-21T07:37:28;100241.09;;;24.38;65.02
67052;BME280;53957;47.222;18.670;2023-05-21T07:40:32;100243.03;;;23.93;69.25
67052;BME280;53957;47.222;18.670;2023-05-21T07:43:35;100239.12;;;24.35;68.27
67052;BME280;53957;47.222;18.670;2023-05-21T07:46:39;100235.84;;;23.81;65.79
67052;BME280;53957;47.222;18.670;2023-05-21T07:49:42;100235.34;;;23.68;67.83
67052;BME280;53957;47.222;18.670;2023-05-21T07:52:45;100240.56;;;23.88;62.85
67052;BME280;53957;47.222;18.670;2023-05-21T07:55:48;100239.81;;;23.53;66.92
67052;BME280;53957;47.222;18.670;2023-05-21T07:58:51;100226.72;;;24.00;68.80
67052;BME280;53957;47.222;18.670;2023-05-21T08:01:58;100226.91;;;23.80;62.74
67052;BME280;53957;47.222;18.670;2023-05-21T08:05:01;100235.00;;;23.73;73.75
67052;BME280;53957;47.222;18.670;2023-05-21T08:08:04;100221.13;;;23.86;68.13
67052;BME280;53957;47.222;18.670;2023-05-21T08:11:08;100230.44;;;23.85;69.73
67052;BME280;53957;47.222;18.670;2023-05-21T08:14:11;100238.69;;;23.58;70.25
67052;BME280;53957;47.222;18.670;2023-05-21T08:17:15;100235.72;;;23.70;66.05
67052;BME280;53957;47.222;18.670;2023-05-21T08:20:18;100231.06;;;23.71;68.06
67052;BME280;53957;47.222;18.670;2023-05-21T08:23:24;100232.38;;;24.22;68.84
67052;BME280;53957;47.222;18.670;2023-05-21T08:26:31;100238.72;;;24.33;69.96
67052;BME280;53957;47.222;18.670;2023-05-21T08:29:35;100237.37;;;24.16;73.45
67052;BME280;53957;47.222;18.670;2023-05-21T08:32:41;100229.22;;;24.12;65.59
67052;BME280;53957;47.222;18.670;2023-05-21T08:35:46;100232.22;;;24.04;64.47
67052;BME280;53957;47.222;18.670;2023-05-21T08:38:49;100224.09;;;24.11;60.71
67052;BME280;53957;47.222;18.670;2023-05-21T08:45:41;100232.81;;;23.90;61.63
67052;BME280;53957;47.222;18.670;2023-05-21T08:48:46;100221.84;;;23.45;65.77
67052;BME280;53957;47.222;18.670;2023-05-21T08:51:50;100235.56;;;23.56;62.34
67052;BME280;53957;47.222;18.670;2023-05-21T08:54:54;100228.22;;;23.94;60.89
67052;BME280;53957;47.222;18.670;2023-05-21T08:57:58;100235.72;;;24.04;61.11
67052;BME280;53957;47.222;18.670;2023-05-21T09:01:03;100230.16;;;24.31;64.97
67052;BME280;53957;47.222;18.670;2023-05-21T09:04:10;100226.25;;;24.32;67.49
67052;BME280;53957;47.222;18.670;2023-05-21T09:07:24;100227.16;;;24.51;61.87
67052;BME280;53957;47.222;18.670;2023-05-21T09:10:47;100223.63;;;24.99;61.82
67052;BME280;53957;47.222;18.670;2023-05-21T09:13:52;100231.03;;;24.42;58.11
67052;BME280;53957;47.222;18.670;2023-05-21T09:16:56;100236.34;;;24.28;58.95
67052;BME280;53957;47.222;18.670;2023-05-21T09:20:07;100231.13;;;24.57;61.04
67052;BME280;53957;47.222;18.670;2023-05-21T09:23:16;100239.44;;;23.89;62.61
67052;BME280;53957;47.222;18.670;2023-05-21T09:26:20;100225.84;;;24.79;55.59
67052;BME280;53957;47.222;18.670;2023-05-21T09:29:23;100228.84;;;24.63;51.72
67052;BME280;53957;47.222;18.670;2023-05-21T09:32:29;100227.72;;;24.19;57.95
67052;BME280;53957;47.222;18.670;2023-05-21T09:35:32;100228.91;;;24.70;55.11
67052;BME280;53957;47.222;18.670;2023-05-21T09:38:37;100242.72;;;24.95;56.12
67052;BME280;53957;47.222;18.670;2023-05-21T09:41:41;100234.03;;;24.79;59.12
67052;BME280;53957;47.222;18.670;2023-05-21T09:44:44;100223.56;;;24.84;62.80
67052;BME280;53957;47.222;18.670;2023-05-21T09:47:49;100227.19;;;24.54;56.20
67052;BME280;53957;47.222;18.670;2023-05-21T09:50:53;100226.31;;;24.39;55.42
67052;BME280;53957;47.222;18.670;2023-05-21T09:53:57;100225.91;;;24.37;52.69
67052;BME280;53957;47.222;18.670;2023-05-21T09:57:01;100230.00;;;25.21;51.73
67052;BME280;53957;47.222;18.670;2023-05-21T10:00:06;100224.38;;;24.92;57.83
67052;BME280;53957;47.222;18.670;2023-05-21T10:03:15;100232.34;;;25.19;52.06
67052;BME280;53957;47.222;18.670;2023-05-21T10:06:19;100225.31;;;25.18;52.60
67052;BME280;53957;47.222;18.670;2023-05-21T10:09:22;100224.34;;;24.85;48.25
67052;BME280;53957;47.222;18.670;2023-05-21T10:12:26;100226.91;;;25.22;51.96
67052;BME280;53957;47.222;18.670;2023-05-21T10:15:37;100217.38;;;24.95;54.05
67052;BME280;53957;47.222;18.670;2023-05-21T10:18:40;100222.50;;;25.03;51.38
67052;BME280;53957;47.222;18.670;2023-05-21T10:21:44;100219.87;;;24.62;49.65
67052;BME280;53957;47.222;18.670;2023-05-21T10:24:53;100216.37;;;25.28;50.72
67052;BME280;53957;47.222;18.670;2023-05-21T10:27:56;100212.22;;;25.49;53.16
67052;BME280;53957;47.222;18.670;2023-05-21T10:31:00;100211.84;;;25.61;52.01
67052;BME280;53957;47.222;18.670;2023-05-21T10:34:03;100206.72;;;25.45;47.96
67052;BME280;53957;47.222;18.670;2023-05-21T10:37:08;100221.62;;;25.73;49.79
67052;BME280;53957;47.222;18.670;2023-05-21T10:40:12;100211.03;;;25.50;48.44
67052;BME280;53957;47.222;18.670;2023-05-21T10:43:37;100210.50;;;25.19;51.82
67052;BME280;53957;47.222;18.670;2023-05-21T10:56:45;100209.44;;;25.42;55.29
67052;BME280;53957;47.222;18.670;2023-05-21T10:59:50;100200.91;;;25.58;52.86
67052;BME280;53957;47.222;18.670;2023-05-21T11:02:54;100202.87;;;25.64;43.10
67052;BME280;53957;47.222;18.670;2023-05-21T11:05:56;100200.34;;;25.19;44.89
67052;BME280;53957;47.222;18.670;2023-05-21T11:09:01;100205.59;;;25.61;42.59
67052;BME280;53957;47.222;18.670;2023-05-21T11:12:12;100200.00;;;25.28;42.38
67052;BME280;53957;47.222;18.670;2023-05-21T11:15:16;100196.63;;;25.60;41.29
67052;BME280;53957;47.222;18.670;2023-05-21T11:18:19;100197.47;;;24.87;43.85
67052;BME280;53957;47.222;18.670;2023-05-21T11:21:22;100188.34;;;25.38;43.99
67052;BME280;53957;47.222;18.670;2023-05-21T11:24:31;100191.81;;;25.28;44.45
67052;BME280;53957;47.222;18.670;2023-05-21T11:27:43;100190.84;;;24.91;42.31
67052;BME280;53957;47.222;18.670;2023-05-21T11:34:45;100193.56;;;25.76;40.82
67052;BME280;53957;47.222;18.670;2023-05-21T11:37:52;100184.88;;;25.45;43.69
67052;BME280;53957;47.222;18.670;2023-05-21T11:41:00;100177.16;;;25.76;42.28
67052;BME280;53957;47.222;18.670;2023-05-21T11:44:07;100173.19;;;25.45;44.50
67052;BME280;53957;47.222;18.670;2023-05-21T11:47:12;100168.75;;;25.18;44.18
67052;BME280;53957;47.222;18.670;2023-05-21T11:50:16;100167.72;;;25.45;43.73
67052;BME280;53957;47.222;18.670;2023-05-21T11:53:19;100159.59;;;25.66;45.11
67052;BME280;53957;47.222;18.670;2023-05-21T11:56:22;100160.00;;;25.83;42.96
67052;BME280;53957;47.222;18.670;2023-05-21T11:59:26;100158.09;;;26.09;44.40
67052;BME280;53957;47.222;18.670;2023-05-21T12:02:32;100146.34;;;26.04;47.71
67052;BME280;53957;47.222;18.670;2023-05-21T12:05:45;100149.88;;;26.09;47.16
67052;BME280;53957;47.222;18.670;2023-05-21T12:08:51;100151.03;;;25.93;46.69
67052;BME280;53957;47.222;18.670;2023-05-21T12:11:59;100146.59;;;25.34;46.10
67052;BME280;53957;47.222;18.670;2023-05-21T12:15:03;100140.06;;;25.57;45.95
67052;BME280;53957;47.222;18.670;2023-05-21T12:18:07;100136.59;;;25.75;50.48
67052;BME280;53957;47.222;18.670;2023-05-21T12:21:10;100135.78;;;25.70;47.19
67052;BME280;53957;47.222;18.670;2023-05-21T12:24:14;100136.56;;;25.67;45.03
67052;BME280;53957;47.222;18.670;2023-05-21T12:27:18;100130.72;;;25.72;44.58
67052;BME280;53957;47.222;18.670;2023-05-21T12:30:21;100121.00;;;26.00;48.33
67052;BME280;53957;47.222;18.670;2023-05-21T12:33:23;100130.34;;;26.28;41.61
67052;BME280;53957;47.222;18.670;2023-05-21T12:36:30;100112.41;;;26.09;49.43
67052;BME280;53957;47.222;18.670;2023-05-21T12:39:41;100115.53;;;25.97;50.73
67052;BME280;53957;47.222;18.670;2023-05-21T12:42:45;100119.06;;;26.12;51.34
67052;BME280;53957;47.222;18.670;2023-05-21T12:45:47;100115.53;;;26.11;45.92
67052;BME280;53957;47.222;18.670;2023-05-21T12:48:54;100120.62;;;26.16;46.28
67052;BME280;53957;47.222;18.670;2023-05-21T12:51:57;100108.47;;;26.25;44.82
67052;BME280;53957;47.222;18.670;2023-05-21T12:55:01;100106.13;;;26.01;46.32
67052;BME280;53957;47.222;18.670;2023-05-21T12:58:04;100098.69;;;26.42;41.46
67052;BME280;53957;47.222;18.670;2023-05-21T13:01:11;100104.19;;;26.06;43.24
67052;BME280;53957;47.222;18.670;2023-05-21T13:04:13;100094.44;;;25.79;42.79
67052;BME280;53957;47.222;18.670;2023-05-21T13:07:18;100094.81;;;25.78;43.77
67052;BME280;53957;47.222;18.670;2023-05-21T13:10:21;100085.81;;;26.42;47.36
67052;BME280;53957;47.222;18.670;2023-05-21T13:13:24;100093.97;;;26.49;42.75
67052;BME280;53957;47.222;18.670;2023-05-21T13:16:27;100084.22;;;26.52;46.78
67052;BME280;53957;47.222;18.670;2023-05-21T13:19:30;100084.69;;;26.22;46.75
67052;BME280;53957;47.222;18.670;2023-05-21T13:22:35;100079.62;;;26.13;43.58
67052;BME280;53957;47.222;18.670;2023-05-21T13:25:40;100074.13;;;25.84;45.71
67052;BME280;53957;47.222;18.670;2023-05-21T13:28:43;100072.19;;;25.88;43.42
67052;BME280;53957;47.222;18.670;2023-05-21T13:31:46;100076.09;;;26.19;46.79
67052;BME280;53957;47.222;18.670;2023-05-21T13:34:49;100071.00;;;26.03;42.09
67052;BME280;53957;47.222;18.670;2023-05-21T13:37:52;100067.91;;;26.09;39.76
67052;BME280;53957;47.222;18.670;2023-05-21T13:40:55;100069.84;;;25.90;41.40
67052;BME280;53957;47.222;18.670;2023-05-21T13:43:58;100061.63;;;25.97;43.44
67052;BME280;53957;47.222;18.670;2023-05-21T13:47:02;100051.44;;;26.41;45.44
67052;BME280;53957;47.222;18.670;2023-05-21T13:50:06;100052.25;;;26.24;42.87
67052;BME280;53957;47.222;18.670;2023-05-21T13:53:09;100056.19;;;26.26;41.88
67052;BME280;53957;47.222;18.670;2023-05-21T13:56:12;100054.19;;;26.30;43.79
67052;BME280;53957;47.222;18.670;2023-05-21T13:59:16;100040.56;;;26.09;43.69
67052;BME280;53957;47.222;18.670;2023-05-21T14:02:19;100039.78;;;26.12;46.32
67052;BME280;53957;47.222;18.670;2023-05-21T14:05:22;100053.44;;;26.04;40.85
67052;BME280;53957;47.222;18.670;2023-05-21T14:08:25;100043.69;;;26.14;39.32
67052;BME280;53957;47.222;18.670;2023-05-21T14:11:30;100051.09;;;26.21;40.17
67052;BME280;53957;47.222;18.670;2023-05-21T14:14:36;100045.62;;;26.25;40.00
67052;BME280;53957;47.222;18.670;2023-05-21T14:17:39;100053.03;;;26.24;40.58
67052;BME280;53957;47.222;18.670;2023-05-21T14:20:43;100045.25;;;26.26;43.40
67052;BME280;53957;47.222;18.670;2023-05-21T14:23:47;100041.72;;;26.22;42.33
67052;BME280;53957;47.222;18.670;2023-05-21T14:26:50;100035.88;;;25.84;45.73
67052;BME280;53957;47.222;18.670;2023-05-21T14:29:53;100039.41;;;25.81;44.17
67052;BME280;53957;47.222;18.670;2023-05-21T14:32:55;100040.19;;;25.78;42.75
67052;BME280;53957;47.222;18.670;2023-05-21T14:36:00;100032.75;;;25.49;42.71
67052;BME280;53957;47.222;18.670;2023-05-21T14:39:03;100036.22;;;25.32;42.89
67052;BME280;53957;47.222;18.670;2023-05-21T14:42:06;100026.53;;;25.70;44.60
67052;BME280;53957;47.222;18.670;2023-05-21T14:45:09;100030.41;;;25.91;43.50
67052;BME280;53957;47.222;18.670;2023-05-21T14:48:22;100020.66;;;25.97;42.91
67052;BME280;53957;47.222;18.670;2023-05-21T14:51:25;100021.44;;;26.12;43.75
67052;BME280;53957;47.222;18.670;2023-05-21T14:54:28;100021.41;;;26.23;42.74
67052;BME280;53957;47.222;18.670;2023-05-21T14:57:31;100027.28;;;26.25;44.04
67052;BME280;53957;47.222;18.670;2023-05-21T15:00:35;100024.53;;;26.25;44.18
67052;BME280;53957;47.222;18.670;2023-05-21T15:03:38;100015.94;;;26.01;44.14
67052;BME280;53957;47.222;18.670;2023-05-21T15:06:41;100019.84;;;26.15;42.37
67052;BME280;53957;47.222;18.670;2023-05-21T15:09:44;100016.34;;;25.96;41.07
67052;BME280;53957;47.222;18.670;2023-05-21T15:12:47;100009.72;;;26.01;40.09
67052;BME280;53957;47.222;18.670;2023-05-21T15:15:49;100007.38;;;25.96;41.99
67052;BME280;53957;47.222;18.670;2023-05-21T15:18:52;100003.91;;;25.92;43.40
67052;BME280;53957;47.222;18.670;2023-05-21T15:21:55;100010.53;;;25.69;47.17
67052;BME280;53957;47.222;18.670;2023-05-21T15:24:59;100004.69;;;25.49;45.19
67052;BME280;53957;47.222;18.670;2023-05-21T15:28:02;100008.19;;;25.35;43.09
67052;BME280;53957;47.222;18.670;2023-05-21T15:31:05;100005.44;;;25.35;48.16
67052;BME280;53957;47.222;18.670;2023-05-21T15:34:08;100014.06;;;25.62;46.58
67052;BME280;53957;47.222;18.670;2023-05-21T15:37:11;100014.06;;;25.62;43.64
67052;BME280;53957;47.222;18.670;2023-05-21T15:40:16;100002.75;;;25.60;40.96
67052;BME280;53957;47.222;18.670;2023-05-21T15:43:20;100014.06;;;25.62;41.05
67052;BME280;53957;47.222;18.670;2023-05-21T16:08:13;100007.81;;;25.40;44.24
67052;BME280;53957;47.222;18.670;2023-05-21T16:11:16;100006.97;;;25.14;49.37
67052;BME280;53957;47.222;18.670;2023-05-21T16:14:19;100006.87;;;24.74;49.10
67052;BME280;53957;47.222;18.670;2023-05-21T16:17:22;100001.91;;;25.20;46.22
67052;BME280;53957;47.222;18.670;2023-05-21T16:20:25;100007.78;;;25.33;45.36
67052;BME280;53957;47.222;18.670;2023-05-21T16:23:28;100015.56;;;25.13;44.36
67052;BME280;53957;47.222;18.670;2023-05-21T16:26:31;100007.78;;;25.33;44.61
67052;BME280;53957;47.222;18.670;2023-05-21T16:29:35;100011.66;;;25.21;44.85
67052;BME280;53957;47.222;18.670;2023-05-21T16:32:42;100018.66;;;25.22;45.47
67052;BME280;53957;47.222;18.670;2023-05-21T16:35:45;100017.09;;;25.06;48.96
67052;BME280;53957;47.222;18.670;2023-05-21T16:38:48;100017.09;;;25.03;50.92
67052;BME280;53957;47.222;18.670;2023-05-21T16:41:51;100029.16;;;24.98;49.37
67052;BME280;53957;47.222;18.670;2023-05-21T16:44:55;100015.41;;;24.73;52.21
67052;BME280;53957;47.222;18.670;2023-05-21T16:47:58;100017.69;;;24.56;50.94
67052;BME280;53957;47.222;18.670;2023-05-21T16:51:01;100016.87;;;24.49;51.54
67052;BME280;53957;47.222;18.670;2023-05-21T16:54:04;100023.78;;;24.32;56.05
67052;BME280;53957;47.222;18.670;2023-05-21T16:57:07;100018.78;;;24.37;55.57
67052;BME280;53957;47.222;18.670;2023-05-21T17:00:11;100022.16;;;24.20;58.98
67052;BME280;53957;47.222;18.670;2023-05-21T17:03:14;100023.66;;;24.14;58.86
67052;BME280;53957;47.222;18.670;2023-05-21T17:06:17;100029.06;;;24.06;60.68
67052;BME280;53957;47.222;18.670;2023-05-21T17:09:20;100032.03;;;23.83;61.38
67052;BME280;53957;47.222;18.670;2023-05-21T17:12:23;100033.19;;;23.86;59.17
67052;BME280;53957;47.222;18.670;2023-05-21T17:15:26;100029.91;;;23.66;62.28
67052;BME280;53957;47.222;18.670;2023-05-21T17:18:29;100031.06;;;23.61;61.49
67052;BME280;53957;47.222;18.670;2023-05-21T17:21:32;100035.00;;;23.67;61.27
67052;BME280;53957;47.222;18.670;2023-05-21T17:24:35;100040.41;;;23.63;62.73
67052;BME280;53957;47.222;18.670;2023-05-21T17:27:38;100033.31;;;23.52;62.92
67052;BME280;53957;47.222;18.670;2023-05-21T17:30:41;100039.91;;;23.51;63.74
67052;BME280;53957;47.222;18.670;2023-05-21T17:33:44;100039.38;;;23.34;65.22
67052;BME280;53957;47.222;18.670;2023-05-21T17:36:47;100043.94;;;23.23;65.41
67052;BME280;53957;47.222;18.670;2023-05-21T17:39:50;100043.09;;;23.19;63.41
67052;BME280;53957;47.222;18.670;2023-05-21T17:42:53;100047.59;;;23.07;63.87
67052;BME280;53957;47.222;18.670;2023-05-21T17:45:56;100039.06;;;23.05;65.34
67052;BME280;53957;47.222;18.670;2023-05-21T17:48:59;100030.81;;;22.98;65.38
67052;BME280;53957;47.222;18.670;2023-05-21T17:52:02;100032.84;;;22.71;68.50
67052;BME280;53957;47.222;18.670;2023-05-21T17:55:06;100035.47;;;22.63;68.13
67052;BME280;53957;47.222;18.670;2023-05-21T17:58:09;100026.84;;;22.58;68.99
67052;BME280;53957;47.222;18.670;2023-05-21T18:01:12;100024.66;;;22.40;70.47
67052;BME280;53957;47.222;18.670;2023-05-21T18:04:15;100017.53;;;22.05;73.96
67052;BME280;53957;47.222;18.670;2023-05-21T18:07:18;100022.47;;;21.96;76.06
